sensor_id;sensor_type;location;lat;lon;timestamp;pressure;altitude;pressure_sealevel;temperature;humidity
56928;BME280;60850;52.502;13.426;2023-06-14T00:01:35;101370.59;;;14.03;100.00
56928;BME280;60850;52.502;13.426;2023-06-14T00:04:05;101369.56;;;14.07;100.00
56928;BME280;60850;52.502;13.426;2023-06-14T00:06:34;101372.59;;;13.96;100.00
56928;BME280;60850;52.502;13.426;2023-06-14T00:09:01;101369.16;;;13.91;100.00
56928;BME280;60850;52.502;13.426;2023-06-14T00:11:28;101366.25;;;13.99;100.00
56928;BME280;60850;52.502;13.426;2023-06-14T00:13:56;101365.72;;;13.86;100.00
56928;BME280;60850;52.502;13.426;2023-06-14T00:16:23;101370.28;;;13.84;100.00
56928;BME280;60850;52.502;13.426;2023-06-14T00:18:50;101370.50;;;13.77;100.00
56928;BME280;60850;52.502;13.426;2023-06-14T00:21:19;101373.13;;;13.78;100.00
56928;BME280;60850;52.502;13.426;2023-06-14T00:23:46;101368.59;;;13.80;100.00
56928;BME280;60850;52.502;13.426;2023-06-14T00:26:13;101367.00;;;13.74;100.00
56928;BME280;60850;52.502;13.426;2023-06-14T00:28:40;101365.91;;;13.80;100.00
56928;BME280;60850;52.502;13.426;2023-06-14T00:31:07;101364.31;;;13.74;100.00
56928;BME280;60850;52.502;13.426;2023-06-14T00:33:35;101375.69;;;13.81;100.00
56928;BME280;60850;52.502;13.426;2023-06-14T00:36:02;101368.81;;;13.72;100.00
56928;BME280;60850;52.502;13.426;2023-06-14T00:38:30;101373.41;;;13.69;100.00
56928;BME280;60850;52.502;13.426;2023-06-14T00:40:57;101377.91;;;13.68;100.00
56928;BME280;60850;52.502;13.426;2023-06-14T00:43:24;101374.34;;;13.66;100.00
56928;BME280;60850;52.502;13.426;2023-06-14T00:45:51;101373.63;;;13.61;100.00
56928;BME280;60850;52.502;13.426;2023-06-14T00:48:18;101375.06;;;13.73;100.00
56928;BME280;60850;52.502;13.426;2023-06-14T00:50:46;101368.81;;;13.72;100.00
56928;BME280;60850;52.502;13.426;2023-06-14T00:53:14;101374.09;;;13.76;100.00
56928;BME280;60850;52.502;13.426;2023-06-14T00:55:44;101369.81;;;13.70;100.00
56928;BME280;60850;52.502;13.426;2023-06-14T00:58:11;101368.88;;;13.71;100.00
56928;BME280;60850;52.502;13.426;2023-06-14T01:00:38;101368.19;;;13.64;100.00
56928;BME280;60850;52.502;13.426;2023-06-14T01:03:05;101364.66;;;13.62;100.00
56928;BME280;60850;52.502;13.426;2023-06-14T01:05:33;101373.41;;;13.69;100.00
56928;BME280;60850;52.502;13.426;2023-06-14T01:08:11;101370.97;;;13.60;100.00
56928;BME280;60850;52.502;13.426;2023-06-14T01:10:49;101366.31;;;13.66;100.00
56928;BME280;60850;52.502;13.426;2023-06-14T01:13:21;101365.66;;;13.58;100.00
56928;BME280;60850;52.502;13.426;2023-06-14T01:15:51;101369.38;;;13.54;100.00
56928;BME280;60850;52.502;13.426;2023-06-14T01:18:18;101371.31;;;13.49;100.00
56928;BME280;60850;52.502;13.426;2023-06-14T01:20:46;101364.78;;;13.58;100.00
56928;BME280;60850;52.502;13.426;2023-06-14T01:23:16;101367.28;;;13.64;100.00
56928;BME280;60850;52.502;13.426;2023-06-14T01:25:43;101365.78;;;13.55;100.00
56928;BME280;60850;52.502;13.426;2023-06-14T01:28:11;101369.41;;;13.53;100.00
56928;BME280;60850;52.502;13.426;2023-06-14T01:30:41;101366.53;;;13.59;100.00
56928;BME280;60850;52.502;13.426;2023-06-14T01:33:30;101361.50;;;13.48;100.00
56928;BME280;60850;52.502;13.426;2023-06-14T01:35:58;101357.97;;;13.48;100.00
56928;BME280;60850;52.502;13.426;2023-06-14T01:38:28;101356.09;;;13.50;100.00
56928;BME280;60850;52.502;13.426;2023-06-14T01:40:57;101366.13;;;13.43;100.00
56928;BME280;60850;52.502;13.426;2023-06-14T01:43:25;101364.25;;;13.45;100.00
56928;BME280;60850;52.502;13.426;2023-06-14T01:45:53;101362.47;;;13.45;100.00
56928;BME280;60850;52.502;13.426;2023-06-14T01:48:21;101360.72;;;13.44;100.00
56928;BME280;60850;52.502;13.426;2023-06-14T01:50:48;101365.19;;;13.44;100.00
56928;BME280;60850;52.502;13.426;2023-06-14T01:53:16;101365.13;;;13.47;100.00
56928;BME280;60850;52.502;13.426;2023-06-14T01:55:44;101368.91;;;13.40;100.00
56928;BME280;60850;52.502;13.426;2023-06-14T01:58:14;101369.88;;;13.36;100.00
56928;BME280;60850;52.502;13.426;2023-06-14T02:00:41;101374.31;;;13.37;100.00
56928;BME280;60850;52.502;13.426;2023-06-14T02:03:11;101379.34;;;13.49;100.00
56928;BME280;60850;52.502;13.426;2023-06-14T02:05:39;101378.75;;;13.38;100.00
56928;BME280;60850;52.502;13.426;2023-06-14T02:08:06;101375.16;;;13.39;100.00
56928;BME280;60850;52.502;13.426;2023-06-14T02:10:33;101373.56;;;13.32;100.00
56928;BME280;60850;52.502;13.426;2023-06-14T02:13:01;101380.25;;;13.48;100.00
56928;BME280;60850;52.502;13.426;2023-06-14T02:15:28;101383.16;;;13.40;100.00
56928;BME280;60850;52.502;13.426;2023-06-14T02:18:00;101386.66;;;13.42;100.00
56928;BME280;60850;52.502;13.426;2023-06-14T02:20:28;101383.22;;;13.37;100.00
56928;BME280;60850;52.502;13.426;2023-06-14T02:22:55;101381.56;;;13.33;100.00
56928;BME280;60850;52.502;13.426;2023-06-14T02:25:23;101374.47;;;13.31;100.00
56928;BME280;60850;52.502;13.426;2023-06-14T02:27:49;101378.91;;;13.33;100.00
56928;BME280;60850;52.502;13.426;2023-06-14T02:30:18;101384.47;;;13.26;100.00
56928;BME280;60850;52.502;13.426;2023-06-14T02:32:45;101377.16;;;13.31;100.00
56928;BME280;60850;52.502;13.426;2023-06-14T02:35:14;101380.97;;;13.22;100.00
56928;BME280;60850;52.502;13.426;2023-06-14T02:37:41;101386.22;;;13.27;100.00
56928;BME280;60850;52.502;13.426;2023-06-14T02:40:09;101382.28;;;13.40;100.00
56928;BME280;60850;52.502;13.426;2023-06-14T02:42:36;101385.91;;;13.37;100.00
56928;BME280;60850;52.502;13.426;2023-06-14T02:45:04;59410.25;;;-144.60;100.00
56928;BME280;60850;52.502;13.426;2023-06-14T02:47:33;101391.72;;;13.21;100.00
56928;BME280;60850;52.502;13.426;2023-06-14T02:50:00;101390.88;;;13.17;100.00
56928;BME280;60850;52.502;13.426;2023-06-14T02:52:28;101390.88;;;-135.16;100.00
56928;BME280;60850;52.502;13.426;2023-06-14T02:54:54;101388.13;;;13.22;100.00
56928;BME280;60850;52.502;13.426;2023-06-14T02:57:21;101389.13;;;13.16;100.00
56928;BME280;60850;52.502;13.426;2023-06-14T02:59:48;101387.63;;;13.06;100.00
56928;BME280;60850;52.502;13.426;2023-06-14T03:02:16;59410.25;;;-144.60;100.00
56928;BME280;60850;52.502;13.426;2023-06-14T03:04:44;59410.25;;;-144.60;100.00
56928;BME280;60850;52.502;13.426;2023-06-14T03:07:12;59410.25;;;-144.60;100.00
56928;BME280;60850;52.502;13.426;2023-06-14T03:09:45;59410.25;;;-144.60;100.00
56928;BME280;60850;52.502;13.426;2023-06-14T03:12:12;59410.25;;;-144.60;100.00
56928;BME280;60850;52.502;13.426;2023-06-14T03:14:40;59410.25;;;-144.60;100.00
56928;BME280;60850;52.502;13.426;2023-06-14T03:17:07;59410.25;;;-144.60;100.00
56928;BME280;60850;52.502;13.426;2023-06-14T03:19:36;59410.25;;;-144.60;100.00
56928;BME280;60850;52.502;13.426;2023-06-14T03:22:04;59410.25;;;-144.60;100.00
56928;BME280;60850;52.502;13.426;2023-06-14T03:24:33;59410.25;;;-144.60;100.00
56928;BME280;60850;52.502;13.426;2023-06-14T03:27:02;59410.25;;;-144.60;100.00
56928;BME280;60850;52.502;13.426;2023-06-14T03:29:29;59410.25;;;-144.60;100.00
56928;BME280;60850;52.502;13.426;2023-06-14T03:31:58;59410.25;;;-144.60;100.00
56928;BME280;60850;52.502;13.426;2023-06-14T03:34:25;59410.25;;;-144.60;100.00
56928;BME280;60850;52.502;13.426;2023-06-14T03:36:52;59410.25;;;-144.60;100.00
56928;BME280;60850;52.502;13.426;2023-06-14T03:39:21;59410.25;;;-144.60;100.00
56928;BME280;60850;52.502;13.426;2023-06-14T03:41:48;59410.25;;;-144.60;100.00
56928;BME280;60850;52.502;13.426;2023-06-14T03:44:16;59410.25;;;-144.60;100.00
56928;BME280;60850;52.502;13.426;2023-06-14T03:46:44;59410.25;;;-144.60;100.00
56928;BME280;60850;52.502;13.426;2023-06-14T03:49:11;59410.25;;;-144.60;100.00
56928;BME280;60850;52.502;13.426;2023-06-14T03:51:39;59410.25;;;-144.60;100.00
56928;BME280;60850;52.502;13.426;2023-06-14T03:54:06;59410.25;;;-144.60;100.00
56928;BME280;60850;52.502;13.426;2023-06-14T03:56:35;59410.25;;;-144.60;100.00
56928;BME280;60850;52.502;13.426;2023-06-14T03:59:02;59410.25;;;-144.60;100.00
56928;BME280;60850;52.502;13.426;2023-06-14T04:01:29;59410.25;;;-144.60;100.00
56928;BME280;60850;52.502;13.426;2023-06-14T04:03:56;59410.25;;;-144.60;100.00
56928;BME280;60850;52.502;13.426;2023-06-14T04:06:24;59410.25;;;-144.60;100.00
56928;BME280;60850;52.502;13.426;2023-06-14T04:08:58;59410.25;;;-144.60;100.00
56928;BME280;60850;52.502;13.426;2023-06-14T04:11:30;59410.25;;;-144.60;100.00
56928;BME280;60850;52.502;13.426;2023-06-14T04:13:59;59410.25;;;-144.60;100.00
56928;BME280;60850;52.502;13.426;2023-06-14T04:16:27;59410.25;;;-144.60;100.00
56928;BME280;60850;52.502;13.426;2023-06-14T04:18:54;59410.25;;;-144.60;100.00
56928;BME280;60850;52.502;13.426;2023-06-14T04:21:24;59410.25;;;-144.60;100.00
56928;BME280;60850;52.502;13.426;2023-06-14T04:23:53;59410.25;;;-144.60;100.00
56928;BME280;60850;52.502;13.426;2023-06-14T04:26:22;59410.25;;;-144.60;100.00
56928;BME280;60850;52.502;13.426;2023-06-14T04:28:55;59410.25;;;-144.60;100.00
56928;BME280;60850;52.502;13.426;2023-06-14T04:31:29;59410.25;;;-144.60;100.00
56928;BME280;60850;52.502;13.426;2023-06-14T04:33:59;59410.25;;;-144.60;100.00
56928;BME280;60850;52.502;13.426;2023-06-14T04:36:26;59410.25;;;-144.60;100.00
56928;BME280;60850;52.502;13.426;2023-06-14T04:38:53;59410.25;;;-144.60;100.00
56928;BME280;60850;52.502;13.426;2023-06-14T04:41:20;59410.25;;;-144.60;100.00
56928;BME280;60850;52.502;13.426;2023-06-14T04:43:48;59410.25;;;-144.60;100.00
56928;BME280;60850;52.502;13.426;2023-06-14T04:46:16;59410.25;;;-144.60;100.00
56928;BME280;60850;52.502;13.426;2023-06-14T04:48:45;59410.25;;;-144.60;100.00
56928;BME280;60850;52.502;13.426;2023-06-14T04:51:13;59410.25;;;-144.60;100.00
56928;BME280;60850;52.502;13.426;2023-06-14T04:53:41;59410.25;;;-144.60;100.00
56928;BME280;60850;52.502;13.426;2023-06-14T04:56:09;59410.25;;;-144.60;100.00
56928;BME280;60850;52.502;13.426;2023-06-14T04:58:36;59410.25;;;-144.60;100.00
56928;BME280;60850;52.502;13.426;2023-06-14T05:01:04;59410.25;;;-144.60;100.00
56928;BME280;60850;52.502;13.426;2023-06-14T05:03:31;59410.25;;;-144.60;100.00
56928;BME280;60850;52.502;13.426;2023-06-14T05:06:01;59410.25;;;-144.60;100.00
56928;BME280;60850;52.502;13.426;2023-06-14T05:08:28;59410.25;;;-144.60;100.00
56928;BME280;60850;52.502;13.426;2023-06-14T05:10:55;59410.25;;;-144.60;100.00
56928;BME280;60850;52.502;13.426;2023-06-14T05:13:22;59410.25;;;-144.60;100.00
56928;BME280;60850;52.502;13.426;2023-06-14T05:15:49;59410.25;;;-144.60;100.00
56928;BME280;60850;52.502;13.426;2023-06-14T05:18:17;59410.25;;;-144.60;100.00
56928;BME280;60850;52.502;13.426;2023-06-14T05:20:44;59410.25;;;-144.60;100.00
56928;BME280;60850;52.502;13.426;2023-06-14T05:23:13;59410.25;;;-144.60;100.00
56928;BME280;60850;52.502;13.426;2023-06-14T05:25:42;59410.25;;;-144.60;100.00
56928;BME280;60850;52.502;13.426;2023-06-14T05:28:09;59410.25;;;-144.60;100.00
56928;BME280;60850;52.502;13.426;2023-06-14T05:30:37;59410.25;;;-144.60;100.00
56928;BME280;60850;52.502;13.426;2023-06-14T05:33:04;59410.25;;;-144.60;100.00
56928;BME280;60850;52.502;13.426;2023-06-14T05:35:31;59410.25;;;-144.60;100.00
56928;BME280;60850;52.502;13.426;2023-06-14T05:37:58;59410.25;;;-144.60;100.00
56928;BME280;60850;52.502;13.426;2023-06-14T05:40:27;59410.25;;;-144.60;100.00
56928;BME280;60850;52.502;13.426;2023-06-14T05:42:54;59410.25;;;-144.60;100.00
56928;BME280;60850;52.502;13.426;2023-06-14T05:45:21;59410.25;;;-144.60;100.00
56928;BME280;60850;52.502;13.426;2023-06-14T05:47:48;59410.25;;;-144.60;100.00
56928;BME280;60850;52.502;13.426;2023-06-14T05:50:16;59410.25;;;-144.60;100.00
56928;BME280;60850;52.502;13.426;2023-06-14T05:52:43;59410.25;;;-144.60;100.00
56928;BME280;60850;52.502;13.426;2023-06-14T05:55:10;59410.25;;;-144.60;100.00
56928;BME280;60850;52.502;13.426;2023-06-14T05:57:39;59410.25;;;-144.60;100.00
56928;BME280;60850;52.502;13.426;2023-06-14T06:00:08;59410.25;;;-144.60;100.00
56928;BME280;60850;52.502;13.426;2023-06-14T06:02:39;59410.25;;;-144.60;100.00
56928;BME280;60850;52.502;13.426;2023-06-14T06:05:07;59410.25;;;-144.60;100.00
56928;BME280;60850;52.502;13.426;2023-06-14T06:07:34;59410.25;;;-144.60;100.00
56928;BME280;60850;52.502;13.426;2023-06-14T06:10:01;59410.25;;;-144.60;100.00
56928;BME280;60850;52.502;13.426;2023-06-14T06:12:28;59410.25;;;-144.60;100.00
56928;BME280;60850;52.502;13.426;2023-06-14T06:14:56;59410.25;;;-144.60;100.00
56928;BME280;60850;52.502;13.426;2023-06-14T06:17:24;59410.25;;;-144.60;100.00
56928;BME280;60850;52.502;13.426;2023-06-14T06:19:51;59410.25;;;-144.60;100.00
56928;BME280;60850;52.502;13.426;2023-06-14T06:22:18;59410.25;;;-144.60;100.00
56928;BME280;60850;52.502;13.426;2023-06-14T06:24:45;59410.25;;;-144.60;100.00
56928;BME280;60850;52.502;13.426;2023-06-14T06:27:12;59410.25;;;-144.60;100.00
56928;BME280;60850;52.502;13.426;2023-06-14T06:29:42;59410.25;;;-144.60;100.00
56928;BME280;60850;52.502;13.426;2023-06-14T06:32:10;59410.25;;;-144.60;100.00
56928;BME280;60850;52.502;13.426;2023-06-14T06:34:37;59410.25;;;-144.60;100.00
56928;BME280;60850;52.502;13.426;2023-06-14T06:37:05;59410.25;;;-144.60;100.00
56928;BME280;60850;52.502;13.426;2023-06-14T06:39:33;59410.25;;;-144.60;100.00
56928;BME280;60850;52.502;13.426;2023-06-14T06:42:00;59410.25;;;-144.60;100.00
56928;BME280;60850;52.502;13.426;2023-06-14T06:44:27;59410.25;;;-144.60;100.00
56928;BME280;60850;52.502;13.426;2023-06-14T06:46:54;59410.25;;;-144.60;100.00
56928;BME280;60850;52.502;13.426;2023-06-14T06:49:23;59410.25;;;-144.60;100.00
56928;BME280;60850;52.502;13.426;2023-06-14T06:51:59;59410.25;;;-144.60;100.00
56928;BME280;60850;52.502;13.426;2023-06-14T06:54:28;59410.25;;;-144.60;100.00
56928;BME280;60850;52.502;13.426;2023-06-14T06:56:55;59410.25;;;-144.60;100.00
56928;BME280;60850;52.502;13.426;2023-06-14T06:59:22;59410.25;;;-144.60;100.00
56928;BME280;60850;52.502;13.426;2023-06-14T07:01:49;59410.25;;;-144.60;100.00
56928;BME280;60850;52.502;13.426;2023-06-14T07:04:16;59410.25;;;-144.60;100.00
56928;BME280;60850;52.502;13.426;2023-06-14T07:06:45;59410.25;;;-144.60;100.00
56928;BME280;60850;52.502;13.426;2023-06-14T07:09:13;59410.25;;;-144.60;100.00
56928;BME280;60850;52.502;13.426;2023-06-14T07:11:42;59410.25;;;-144.60;100.00
56928;BME280;60850;52.502;13.426;2023-06-14T07:14:09;59410.25;;;-144.60;100.00
56928;BME280;60850;52.502;13.426;2023-06-14T07:16:36;59410.25;;;-144.60;100.00
56928;BME280;60850;52.502;13.426;2023-06-14T07:19:05;59410.25;;;-144.60;100.00
56928;BME280;60850;52.502;13.426;2023-06-14T07:21:41;59410.25;;;-144.60;100.00
56928;BME280;60850;52.502;13.426;2023-06-14T07:24:09;59410.25;;;-144.60;100.00
56928;BME280;60850;52.502;13.426;2023-06-14T07:26:37;59410.25;;;-144.60;100.00
56928;BME280;60850;52.502;13.426;2023-06-14T07:29:04;59410.25;;;-144.60;100.00
56928;BME280;60850;52.502;13.426;2023-06-14T07:31:31;59410.25;;;-144.60;100.00
56928;BME280;60850;52.502;13.426;2023-06-14T07:33:58;59410.25;;;-144.60;100.00
56928;BME280;60850;52.502;13.426;2023-06-14T07:36:25;59410.25;;;-144.60;100.00
56928;BME280;60850;52.502;13.426;2023-06-14T07:38:52;59410.25;;;-144.60;100.00
56928;BME280;60850;52.502;13.426;2023-06-14T07:41:21;59410.25;;;-144.60;100.00
56928;BME280;60850;52.502;13.426;2023-06-14T07:43:48;59410.25;;;-144.60;100.00
56928;BME280;60850;52.502;13.426;2023-06-14T07:46:15;59410.25;;;-144.60;100.00
56928;BME280;60850;52.502;13.426;2023-06-14T07:48:42;59410.25;;;-144.60;100.00
56928;BME280;60850;52.502;13.426;2023-06-14T07:51:09;59410.25;;;-144.60;100.00
56928;BME280;60850;52.502;13.426;2023-06-14T07:53:36;59410.25;;;-144.60;100.00
56928;BME280;60850;52.502;13.426;2023-06-14T07:56:03;59410.25;;;-144.60;100.00
56928;BME280;60850;52.502;13.426;2023-06-14T07:58:32;59410.25;;;-144.60;100.00
56928;BME280;60850;52.502;13.426;2023-06-14T08:00:59;59410.25;;;-144.60;100.00
56928;BME280;60850;52.502;13.426;2023-06-14T08:03:29;59410.25;;;-144.60;100.00
56928;BME280;60850;52.502;13.426;2023-06-14T08:05:56;59410.25;;;-144.60;100.00
56928;BME280;60850;52.502;13.426;2023-06-14T08:08:23;59410.25;;;-144.60;100.00
56928;BME280;60850;52.502;13.426;2023-06-14T08:10:50;59410.25;;;-144.60;100.00
56928;BME280;60850;52.502;13.426;2023-06-14T08:13:17;59410.25;;;-144.60;100.00
56928;BME280;60850;52.502;13.426;2023-06-14T08:15:45;59410.25;;;-144.60;100.00
56928;BME280;60850;52.502;13.426;2023-06-14T08:18:12;59410.25;;;-144.60;100.00
56928;BME280;60850;52.502;13.426;2023-06-14T08:20:39;59410.25;;;-144.60;100.00
56928;BME280;60850;52.502;13.426;2023-06-14T08:23:07;59410.25;;;-144.60;100.00
56928;BME280;60850;52.502;13.426;2023-06-14T08:25:34;59410.25;;;-144.60;100.00
56928;BME280;60850;52.502;13.426;2023-06-14T08:28:01;59410.25;;;-144.60;100.00
56928;BME280;60850;52.502;13.426;2023-06-14T08:30:28;59410.25;;;-144.60;100.00
56928;BME280;60850;52.502;13.426;2023-06-14T08:32:57;59410.25;;;-144.60;100.00
56928;BME280;60850;52.502;13.426;2023-06-14T08:35:24;59410.25;;;-144.60;100.00
56928;BME280;60850;52.502;13.426;2023-06-14T08:37:51;59410.25;;;-144.60;100.00
56928;BME280;60850;52.502;13.426;2023-06-14T08:40:19;59410.25;;;-144.60;100.00
56928;BME280;60850;52.502;13.426;2023-06-14T08:42:50;59410.25;;;-144.60;100.00
56928;BME280;60850;52.502;13.426;2023-06-14T08:45:18;59410.25;;;-144.60;100.00
56928;BME280;60850;52.502;13.426;2023-06-14T08:47:46;59410.25;;;-144.60;100.00
56928;BME280;60850;52.502;13.426;2023-06-14T08:50:20;59410.25;;;-144.60;100.00
56928;BME280;60850;52.502;13.426;2023-06-14T08:52:48;59410.25;;;-144.60;100.00
56928;BME280;60850;52.502;13.426;2023-06-14T08:55:18;59410.25;;;-144.60;100.00
56928;BME280;60850;52.502;13.426;2023-06-14T08:57:47;59410.25;;;-144.60;100.00
56928;BME280;60850;52.502;13.426;2023-06-14T09:00:15;59410.25;;;-144.60;100.00
56928;BME280;60850;52.502;13.426;2023-06-14T09:02:43;59410.25;;;-144.60;100.00
56928;BME280;60850;52.502;13.426;2023-06-14T09:05:10;59410.25;;;-144.60;100.00
56928;BME280;60850;52.502;13.426;2023-06-14T09:07:40;59410.25;;;-144.60;100.00
56928;BME280;60850;52.502;13.426;2023-06-14T09:10:10;59410.25;;;-144.60;100.00
56928;BME280;60850;52.502;13.426;2023-06-14T09:12:37;59410.25;;;-144.60;100.00
56928;BME280;60850;52.502;13.426;2023-06-14T09:15:06;59410.25;;;-144.60;100.00
56928;BME280;60850;52.502;13.426;2023-06-14T09:17:34;59410.25;;;-144.60;100.00
56928;BME280;60850;52.502;13.426;2023-06-14T09:20:02;59410.25;;;-144.60;100.00
56928;BME280;60850;52.502;13.426;2023-06-14T09:22:32;59410.25;;;-144.60;100.00
56928;BME280;60850;52.502;13.426;2023-06-14T09:25:00;59410.25;;;-144.60;100.00
56928;BME280;60850;52.502;13.426;2023-06-14T09:27:28;59410.25;;;-144.60;100.00
56928;BME280;60850;52.502;13.426;2023-06-14T09:29:55;59410.25;;;-144.60;100.00
56928;BME280;60850;52.502;13.426;2023-06-14T09:32:22;59410.25;;;-144.60;100.00
56928;BME280;60850;52.502;13.426;2023-06-14T09:34:49;59410.25;;;-144.60;100.00
56928;BME280;60850;52.502;13.426;2023-06-14T09:37:27;59410.25;;;-144.60;100.00
56928;BME280;60850;52.502;13.426;2023-06-14T09:39:55;59410.25;;;-144.60;100.00
56928;BME280;60850;52.502;13.426;2023-06-14T09:42:24;59410.25;;;-144.60;100.00
56928;BME280;60850;52.502;13.426;2023-06-14T09:44:52;59410.25;;;-144.60;100.00
56928;BME280;60850;52.502;13.426;2023-06-14T09:47:20;59410.25;;;-144.60;100.00
56928;BME280;60850;52.502;13.426;2023-06-14T09:49:48;59410.25;;;-144.60;100.00
56928;BME280;60850;52.502;13.426;2023-06-14T09:52:17;59410.25;;;-144.60;100.00
56928;BME280;60850;52.502;13.426;2023-06-14T09:54:45;59410.25;;;-144.60;100.00
56928;BME280;60850;52.502;13.426;2023-06-14T09:57:14;59410.25;;;-144.60;100.00
56928;BME280;60850;52.502;13.426;2023-06-14T09:59:44;59410.25;;;-144.60;100.00
56928;BME280;60850;52.502;13.426;2023-06-14T10:02:20;59410.25;;;-144.60;100.00
56928;BME280;60850;52.502;13.426;2023-06-14T10:04:55;59410.25;;;-144.60;100.00
56928;BME280;60850;52.502;13.426;2023-06-14T10:07:27;59410.25;;;-144.60;100.00
56928;BME280;60850;52.502;13.426;2023-06-14T10:09:57;59410.25;;;-144.60;100.00
56928;BME280;60850;52.502;13.426;2023-06-14T10:12:24;59410.25;;;-144.60;100.00
56928;BME280;60850;52.502;13.426;2023-06-14T10:14:53;59410.25;;;-144.60;100.00
56928;BME280;60850;52.502;13.426;2023-06-14T10:17:30;59410.25;;;-144.60;100.00
56928;BME280;60850;52.502;13.426;2023-06-14T10:20:18;59410.25;;;-144.60;100.00
56928;BME280;60850;52.502;13.426;2023-06-14T10:22:51;59410.25;;;-144.60;100.00
56928;BME280;60850;52.502;13.426;2023-06-14T10:25:27;59410.25;;;-144.60;100.00
56928;BME280;60850;52.502;13.426;2023-06-14T10:28:14;59410.25;;;-144.60;100.00
56928;BME280;60850;52.502;13.426;2023-06-14T10:31:07;59410.25;;;-144.60;100.00
56928;BME280;60850;52.502;13.426;2023-06-14T10:33:35;59410.25;;;-144.60;100.00
56928;BME280;60850;52.502;13.426;2023-06-14T10:36:10;59410.25;;;-144.60;100.00
56928;BME280;60850;52.502;13.426;2023-06-14T10:38:37;59410.25;;;-144.60;100.00
56928;BME280;60850;52.502;13.426;2023-06-14T10:41:05;59410.25;;;-144.60;100.00
56928;BME280;60850;52.502;13.426;2023-06-14T10:43:33;59410.25;;;-144.60;100.00
56928;BME280;60850;52.502;13.426;2023-06-14T10:46:16;59410.25;;;-144.60;100.00
56928;BME280;60850;52.502;13.426;2023-06-14T10:48:44;59410.25;;;-144.60;100.00
56928;BME280;60850;52.502;13.426;2023-06-14T10:51:18;59410.25;;;-144.60;100.00
56928;BME280;60850;52.502;13.426;2023-06-14T10:53:47;59410.25;;;-144.60;100.00
56928;BME280;60850;52.502;13.426;2023-06-14T10:56:27;59410.25;;;-144.60;100.00
56928;BME280;60850;52.502;13.426;2023-06-14T10:58:55;59410.25;;;-144.60;100.00
56928;BME280;60850;52.502;13.426;2023-06-14T11:01:34;59410.25;;;-144.60;100.00
56928;BME280;60850;52.502;13.426;2023-06-14T11:04:09;59410.25;;;-144.60;100.00
56928;BME280;60850;52.502;13.426;2023-06-14T11:06:46;59410.25;;;-144.60;100.00
56928;BME280;60850;52.502;13.426;2023-06-14T11:09:46;59410.25;;;-144.60;100.00
56928;BME280;60850;52.502;13.426;2023-06-14T11:12:19;59410.25;;;-144.60;100.00
56928;BME280;60850;52.502;13.426;2023-06-14T11:14:47;59410.25;;;-144.60;100.00
56928;BME280;60850;52.502;13.426;2023-06-14T11:17:16;59410.25;;;-144.60;100.00
56928;BME280;60850;52.502;13.426;2023-06-14T11:19:44;59410.25;;;-144.60;100.00
56928;BME280;60850;52.502;13.426;2023-06-14T11:22:10;59410.25;;;-144.60;100.00
56928;BME280;60850;52.502;13.426;2023-06-14T11:24:40;59410.25;;;-144.60;100.00
56928;BME280;60850;52.502;13.426;2023-06-14T11:27:07;59410.25;;;-144.60;100.00
56928;BME280;60850;52.502;13.426;2023-06-14T11:29:34;59410.25;;;-144.60;100.00
56928;BME280;60850;52.502;13.426;2023-06-14T11:32:01;59410.25;;;-144.60;100.00
56928;BME280;60850;52.502;13.426;2023-06-14T11:34:30;59410.25;;;-144.60;100.00
56928;BME280;60850;52.502;13.426;2023-06-14T11:36:57;59410.25;;;-144.60;100.00
56928;BME280;60850;52.502;13.426;2023-06-14T11:39:24;59410.25;;;-144.60;100.00
56928;BME280;60850;52.502;13.426;2023-06-14T11:41:52;59410.25;;;-144.60;100.00
56928;BME280;60850;52.502;13.426;2023-06-14T11:44:21;59410.25;;;-144.60;100.00
56928;BME280;60850;52.502;13.426;2023-06-14T11:46:48;59410.25;;;-144.60;100.00
56928;BME280;60850;52.502;13.426;2023-06-14T11:49:16;59410.25;;;-144.60;100.00
56928;BME280;60850;52.502;13.426;2023-06-14T11:51:44;59410.25;;;-144.60;100.00
56928;BME280;60850;52.502;13.426;2023-06-14T11:54:13;59410.25;;;-144.60;100.00
56928;BME280;60850;52.502;13.426;2023-06-14T11:56:40;59410.25;;;-144.60;100.00
56928;BME280;60850;52.502;13.426;2023-06-14T11:59:07;59410.25;;;-144.60;100.00
56928;BME280;60850;52.502;13.426;2023-06-14T12:01:36;59410.25;;;-144.60;100.00
56928;BME280;60850;52.502;13.426;2023-06-14T12:04:04;59410.25;;;-144.60;100.00
56928;BME280;60850;52.502;13.426;2023-06-14T12:06:31;59410.25;;;-144.60;100.00
56928;BME280;60850;52.502;13.426;2023-06-14T12:09:07;59410.25;;;-144.60;100.00
56928;BME280;60850;52.502;13.426;2023-06-14T12:11:38;59410.25;;;-144.60;100.00
56928;BME280;60850;52.502;13.426;2023-06-14T12:14:08;59410.25;;;-144.60;100.00
56928;BME280;60850;52.502;13.426;2023-06-14T12:16:38;59410.25;;;-144.60;100.00
56928;BME280;60850;52.502;13.426;2023-06-14T12:19:11;59410.25;;;-144.60;100.00
56928;BME280;60850;52.502;13.426;2023-06-14T12:21:38;59410.25;;;-144.60;100.00
56928;BME280;60850;52.502;13.426;2023-06-14T12:24:08;59410.25;;;-144.60;100.00
56928;BME280;60850;52.502;13.426;2023-06-14T12:26:38;59410.25;;;-144.60;100.00
56928;BME280;60850;52.502;13.426;2023-06-14T12:29:07;59410.25;;;-144.60;100.00
56928;BME280;60850;52.502;13.426;2023-06-14T12:31:34;59410.25;;;-144.60;100.00